Time;durP1;ratioP1;P1;durP2;ratioP2;P2;SDS_P1;SDS_P2;PMS_P1;PMS_P2;Temp;Humidity;BMP_temperature;BMP_pressure;BME280_temperature;BME280_humidity;BME280_pressure;Samples;Min_cycle;Max_cycle;Signal;HPM_P1;HPM_P2
2024/01/15 00:02:10;;;;;;;15.63;6.00;;;;;;;0.59;100.00;99120.53;5951748;29;20047;-72
2024/01/15 00:05:06;;;;;;;14.57;5.87;;;;;;;0.63;100.00;99121.09;5953325;29;20032;-72
2024/01/15 00:08:01;;;;;;;16.67;6.32;;;;;;;0.60;100.00;99119.56;5953366;29;20476;-71
2024/01/15 00:10:56;;;;;;;14.90;5.07;;;;;;;0.61;100.00;99123.00;5950581;29;20063;-72
2024/01/15 00:13:52;;;;;;;13.93;4.97;;;;;;;0.54;100.00;99117.44;5953863;29;20031;-71
2024/01/15 00:16:49;;;;;;;16.17;5.93;;;;;;;0.56;100.00;99119.94;5947790;29;20024;-72
2024/01/15 00:19:44;;;;;;;15.80;5.47;;;;;;;0.56;100.00;99115.53;5950318;29;20389;-72
2024/01/15 00:22:40;;;;;;;15.30;5.77;;;;;;;0.55;100.00;99118.25;5957112;29;20803;-71
2024/01/15 00:25:35;;;;;;;15.77;5.97;;;;;;;0.53;100.00;99110.56;5957195;29;20035;-72
2024/01/15 00:28:30;;;;;;;17.03;6.60;;;;;;;0.59;100.00;99114.47;5953694;28;20496;-71
2024/01/15 00:31:26;;;;;;;16.57;6.90;;;;;;;0.56;100.00;99107.72;5950520;29;20379;-72
2024/01/15 00:34:21;;;;;;;16.00;5.72;;;;;;;0.48;100.00;99107.50;5958376;29;20063;-72
2024/01/15 00:37:17;;;;;;;12.48;5.13;;;;;;;0.48;100.00;99098.84;5954802;29;20043;-72
2024/01/15 00:40:12;;;;;;;14.32;5.05;;;;;;;0.51;100.00;99093.41;5960309;29;20041;-72
2024/01/15 00:43:08;;;;;;;14.70;5.33;;;;;;;0.56;100.00;99097.28;5951025;29;20063;-71
2024/01/15 00:46:03;;;;;;;12.60;5.27;;;;;;;0.57;100.00;99085.88;5954750;29;20043;-73
2024/01/15 00:48:58;;;;;;;12.43;5.32;;;;;;;0.58;100.00;99084.13;5958000;29;20268;-71
2024/01/15 00:51:54;;;;;;;12.70;4.93;;;;;;;0.59;100.00;99077.97;5960331;29;20031;-71
2024/01/15 00:54:49;;;;;;;11.60;4.07;;;;;;;0.50;100.00;99076.91;5956626;29;20102;-72
2024/01/15 00:57:44;;;;;;;14.00;4.17;;;;;;;0.44;100.00;99055.72;5953245;29;20369;-71
2024/01/15 01:00:40;;;;;;;8.50;3.33;;;;;;;0.42;100.00;99062.84;5961634;29;20148;-72
2024/01/15 01:03:35;;;;;;;7.82;2.75;;;;;;;0.35;100.00;99046.03;5957740;29;20031;-72
2024/01/15 01:06:31;;;;;;;5.87;2.90;;;;;;;0.35;100.00;99061.69;5951917;29;20035;-72
2024/01/15 01:09:29;;;;;;;8.37;3.60;;;;;;;0.33;100.00;99066.16;5959177;29;20398;-72
2024/01/15 01:12:25;;;;;;;14.35;3.78;;;;;;;0.31;100.00;99070.69;5954398;29;20086;-71
2024/01/15 01:15:21;;;;;;;10.40;3.30;;;;;;;0.33;100.00;99045.31;5953317;29;20036;-71
2024/01/15 01:18:16;;;;;;;6.15;2.45;;;;;;;0.29;100.00;99049.13;5951767;29;20479;-72
2024/01/15 01:21:11;;;;;;;8.43;3.03;;;;;;;0.29;100.00;99041.31;5960572;29;20055;-72
2024/01/15 01:24:07;;;;;;;5.70;2.03;;;;;;;0.27;100.00;99041.41;5956853;29;20040;-71
2024/01/15 01:27:02;;;;;;;7.27;2.73;;;;;;;0.35;100.00;99043.44;5956145;29;20070;-71
2024/01/15 01:29:57;;;;;;;6.78;2.33;;;;;;;0.36;100.00;99034.66;5955975;29;20060;-73
2024/01/15 01:32:53;;;;;;;10.03;2.63;;;;;;;0.51;100.00;99049.06;5956083;29;20035;-72
2024/01/15 01:35:48;;;;;;;6.10;2.27;;;;;;;0.54;100.00;99056.66;5955055;29;20046;-73
2024/01/15 01:38:44;;;;;;;8.00;2.20;;;;;;;0.59;100.00;99042.28;5953453;29;20391;-72
2024/01/15 01:41:40;;;;;;;9.97;2.87;;;;;;;0.61;100.00;99065.63;5952646;29;20036;-72
2024/01/15 01:44:35;;;;;;;10.00;2.85;;;;;;;0.64;100.00;99043.69;5954142;29;20044;-72
2024/01/15 01:47:31;;;;;;;8.60;2.60;;;;;;;0.75;100.00;99057.50;5950598;29;20028;-72
2024/01/15 01:50:26;;;;;;;8.90;2.45;;;;;;;0.73;100.00;99050.75;5957604;29;20028;-72
2024/01/15 01:53:22;;;;;;;10.68;2.50;;;;;;;0.73;100.00;99063.81;5953157;29;20071;-71
2024/01/15 01:56:18;;;;;;;9.93;2.58;;;;;;;0.69;100.00;99047.56;5949295;29;20076;-72
2024/01/15 01:59:13;;;;;;;7.35;1.98;;;;;;;0.72;100.00;99060.38;5953720;29;20087;-72
2024/01/15 02:02:09;;;;;;;8.00;2.25;;;;;;;0.62;100.00;99036.00;5951436;29;20426;-72
2024/01/15 02:05:05;;;;;;;8.68;1.90;;;;;;;0.62;100.00;99038.59;5952057;29;20114;-71
2024/01/15 02:08:00;;;;;;;9.32;2.22;;;;;;;0.63;100.00;99024.59;5950100;29;20027;-72
2024/01/15 02:10:55;;;;;;;15.43;2.50;;;;;;;0.69;100.00;99011.06;5951752;29;20028;-72
2024/01/15 02:13:51;;;;;;;6.70;1.60;;;;;;;0.66;100.00;99011.31;5954517;29;20059;-72
2024/01/15 02:16:46;;;;;;;9.45;1.40;;;;;;;0.79;100.00;99021.56;5955455;29;20044;-72
2024/01/15 02:19:41;;;;;;;6.30;2.00;;;;;;;0.78;100.00;98999.03;5951485;29;20035;-72
2024/01/15 02:22:36;;;;;;;4.60;1.27;;;;;;;0.85;100.00;98995.78;5948728;29;20043;-72
2024/01/15 02:25:32;;;;;;;7.27;2.07;;;;;;;0.81;100.00;98999.63;5955025;29;20282;-72
2024/01/15 02:28:28;;;;;;;6.72;1.70;;;;;;;0.90;100.00;99014.50;5951949;29;20115;-73
2024/01/15 02:31:23;;;;;;;9.48;1.45;;;;;;;1.03;100.00;99011.72;5949771;29;20493;-72
2024/01/15 02:34:18;;;;;;;4.83;1.13;;;;;;;1.05;100.00;99015.00;5954830;29;20055;-71
2024/01/15 02:37:14;;;;;;;6.00;1.10;;;;;;;1.11;100.00;99012.69;5949627;29;20070;-73
2024/01/15 02:40:09;;;;;;;9.37;1.60;;;;;;;1.10;100.00;98987.56;5947878;29;20031;-72
2024/01/15 02:43:05;;;;;;;9.98;1.48;;;;;;;1.23;100.00;99002.19;5951649;29;20024;-72
2024/01/15 02:46:00;;;;;;;5.83;1.83;;;;;;;1.20;100.00;98985.00;5952544;29;20040;-72
2024/01/15 02:48:55;;;;;;;6.73;1.40;;;;;;;1.20;100.00;98979.78;5951411;29;20115;-72
2024/01/15 02:51:50;;;;;;;5.07;1.30;;;;;;;1.23;100.00;98978.69;5951543;29;20035;-72
2024/01/15 02:54:46;;;;;;;5.50;1.50;;;;;;;1.17;100.00;98980.88;5953817;29;20062;-72
2024/01/15 02:57:41;;;;;;;5.67;1.17;;;;;;;1.20;100.00;98988.44;5951964;29;20028;-72
2024/01/15 03:00:36;;;;;;;9.03;1.57;;;;;;;1.20;100.00;98975.41;5956605;29;20051;-72
2024/01/15 03:03:33;;;;;;;7.97;1.50;;;;;;;1.23;100.00;98976.91;5953380;29;20032;-72
2024/01/15 03:06:28;;;;;;;7.13;1.77;;;;;;;1.18;100.00;98960.81;5949787;29;20039;-72
2024/01/15 03:09:23;;;;;;;8.57;1.50;;;;;;;1.29;100.00;98973.78;5944545;29;20468;-72
2024/01/15 03:12:19;;;;;;;9.83;1.70;;;;;;;1.29;100.00;98975.56;5952006;29;20115;-72
2024/01/15 03:15:14;;;;;;;10.43;1.67;;;;;;;1.33;100.00;98985.66;5949795;29;20106;-72
2024/01/15 03:18:09;;;;;;;6.85;1.30;;;;;;;1.32;100.00;98957.03;5950021;29;20830;-72
2024/01/15 03:21:06;;;;;;;7.10;1.53;;;;;;;1.37;100.00;98975.75;5955243;29;20035;-73
2024/01/15 03:24:01;;;;;;;8.98;1.35;;;;;;;1.32;100.00;98975.31;5956325;29;20390;-71
2024/01/15 03:26:56;;;;;;;2.80;1.10;;;;;;;1.33;100.00;98963.94;5950521;28;20046;-71
2024/01/15 03:29:52;;;;;;;13.43;1.30;;;;;;;1.37;100.00;98970.53;5950635;29;20028;-73
2024/01/15 03:32:47;;;;;;;4.80;1.30;;;;;;;1.28;100.00;98973.94;5954442;29;20472;-72
2024/01/15 03:35:42;;;;;;;5.30;1.37;;;;;;;1.37;100.00;98975.75;5953141;29;20046;-72
2024/01/15 03:38:41;;;;;;;6.17;0.63;;;;;;;1.35;100.00;98975.06;5951555;29;20264;-72
2024/01/15 03:41:36;;;;;;;5.30;1.40;;;;;;;1.30;100.00;98964.19;5951615;29;20174;-72
2024/01/15 03:44:32;;;;;;;11.30;1.30;;;;;;;1.19;100.00;98955.50;5953971;29;20044;-72
2024/01/15 03:47:28;;;;;;;2.73;1.10;;;;;;;1.19;100.00;98973.75;5951394;29;20032;-71
2024/01/15 03:50:24;;;;;;;3.40;1.00;;;;;;;1.15;100.00;98982.78;5945915;29;20115;-71
2024/01/15 03:53:19;;;;;;;7.75;1.05;;;;;;;1.05;100.00;98987.16;5948157;29;20038;-73
2024/01/15 03:56:15;;;;;;;5.40;0.83;;;;;;;1.08;100.00;98988.66;5954990;29;20042;-73
2024/01/15 03:59:10;;;;;;;4.87;1.10;;;;;;;1.07;100.00;98985.22;5957456;29;20028;-72
2024/01/15 04:02:05;;;;;;;5.67;0.93;;;;;;;0.89;100.00;98965.91;5955425;29;20043;-71
2024/01/15 04:05:01;;;;;;;3.93;0.90;;;;;;;1.04;100.00;99010.75;5958980;29;20113;-72
2024/01/15 04:07:56;;;;;;;4.10;0.95;;;;;;;0.95;100.00;98986.25;5959735;29;20291;-72
2024/01/15 04:10:51;;;;;;;3.17;0.77;;;;;;;0.85;100.00;98985.34;5951936;29;20044;-71
2024/01/15 04:13:47;;;;;;;2.83;0.93;;;;;;;0.87;100.00;98987.84;5963393;28;20028;-72
2024/01/15 04:16:42;;;;;;;7.50;0.87;;;;;;;0.76;100.00;98967.84;5967080;29;20050;-71
2024/01/15 04:19:37;;;;;;;9.67;1.33;;;;;;;0.96;100.00;98982.69;5955655;29;20036;-73
2024/01/15 04:22:34;;;;;;;2.47;0.70;;;;;;;1.03;100.00;98975.97;5962355;29;20467;-73
2024/01/15 04:25:30;;;;;;;4.60;1.27;;;;;;;1.19;100.00;98989.44;5961656;29;20060;-73
2024/01/15 04:28:25;;;;;;;9.32;1.55;;;;;;;1.24;100.00;98975.97;5957867;29;20044;-72
2024/01/15 04:31:24;;;;;;;7.57;1.27;;;;;;;1.26;100.00;98975.81;5964662;29;20500;-72
2024/01/15 04:34:21;;;;;;;3.55;0.75;;;;;;;1.33;100.00;98984.81;5956961;29;20551;-72
2024/01/15 04:37:16;;;;;;;4.10;0.90;;;;;;;1.22;100.00;98979.66;5952640;29;20031;-71
2024/01/15 04:40:11;;;;;;;4.97;1.07;;;;;;;1.18;100.00;98977.31;5957221;29;20025;-72
2024/01/15 04:43:07;;;;;;;6.25;1.05;;;;;;;1.05;100.00;98968.88;5957005;29;20048;-72
2024/01/15 04:46:03;;;;;;;8.43;1.70;;;;;;;1.00;100.00;98981.50;5966255;29;20071;-71
2024/01/15 04:48:58;;;;;;;4.38;1.20;;;;;;;0.89;100.00;98971.13;5954544;29;20094;-71
2024/01/15 04:51:53;;;;;;;4.77;1.13;;;;;;;0.91;100.00;98984.84;5962061;29;20052;-72
2024/01/15 04:54:49;;;;;;;7.37;1.30;;;;;;;0.87;100.00;98978.22;5953406;29;20059;-73
2024/01/15 04:57:44;;;;;;;5.50;1.70;;;;;;;0.93;100.00;98993.38;5956619;29;20526;-73
2024/01/15 05:00:39;;;;;;;5.87;0.73;;;;;;;0.96;100.00;99002.72;5958080;29;20378;-71
2024/01/15 05:03:34;;;;;;;4.60;1.10;;;;;;;0.88;100.00;98979.88;5960802;29;20295;-72
2024/01/15 05:06:30;;;;;;;13.00;2.70;;;;;;;0.76;100.00;98995.75;5962374;29;20035;-72
2024/01/15 05:09:25;;;;;;;5.27;2.00;;;;;;;0.53;100.00;98980.19;5950666;29;20403;-72
2024/01/15 05:12:20;;;;;;;3.27;1.13;;;;;;;0.49;100.00;98991.03;5955071;29;20080;-72
2024/01/15 05:15:16;;;;;;;10.20;1.40;;;;;;;0.45;100.00;98968.75;5959058;28;20485;-71
2024/01/15 05:18:11;;;;;;;3.08;0.85;;;;;;;0.46;100.00;98967.81;5955865;29;20271;-71
2024/01/15 05:21:06;;;;;;;6.13;1.17;;;;;;;0.45;100.00;98966.97;5952748;29;20031;-72
2024/01/15 05:24:02;;;;;;;6.70;1.23;;;;;;;0.48;100.00;98974.53;5949784;29;20548;-71
2024/01/15 05:26:57;;;;;;;7.03;0.80;;;;;;;0.52;100.00;98975.09;5956021;29;20024;-71
2024/01/15 05:29:52;;;;;;;6.47;1.13;;;;;;;0.47;100.00;98964.22;5953053;29;20071;-71
2024/01/15 05:32:48;;;;;;;2.10;0.93;;;;;;;0.54;100.00;98973.22;5951194;29;20478;-71
2024/01/15 05:35:43;;;;;;;11.10;1.17;;;;;;;0.62;100.00;98973.41;5955042;29;20039;-71
2024/01/15 05:38:39;;;;;;;7.90;1.30;;;;;;;0.73;100.00;98981.19;5957112;29;20035;-71
2024/01/15 05:41:34;;;;;;;4.70;0.82;;;;;;;0.72;100.00;98969.06;5957210;29;20415;-71
2024/01/15 05:44:29;;;;;;;5.37;1.37;;;;;;;0.75;100.00;98976.66;5956474;29;20043;-71
2024/01/15 05:47:25;;;;;;;11.43;0.97;;;;;;;0.72;100.00;98974.28;5948153;29;20039;-70
2024/01/15 05:50:20;;;;;;;8.57;1.50;;;;;;;0.70;100.00;98986.66;5952200;29;20043;-71
2024/01/15 05:53:15;;;;;;;5.87;0.83;;;;;;;0.70;100.00;98971.00;5948826;29;20027;-71
2024/01/15 05:56:11;;;;;;;2.67;1.17;;;;;;;0.77;100.00;98982.56;5949912;29;20112;-72
2024/01/15 05:59:06;;;;;;;7.50;1.08;;;;;;;0.78;100.00;98972.97;5948817;29;20366;-71
2024/01/15 06:02:01;;;;;;;5.53;1.30;;;;;;;0.78;100.00;98960.75;5949122;29;20067;-72
2024/01/15 06:04:57;;;;;;;4.80;1.00;;;;;;;0.82;100.00;98979.56;5953313;29;20028;-71
2024/01/15 06:07:52;;;;;;;3.85;1.30;;;;;;;0.90;100.00;98979.75;5952477;29;20023;-72
2024/01/15 06:10:47;;;;;;;1.30;0.60;;;;;;;0.98;100.00;98982.56;5958071;29;20059;-71
2024/01/15 06:13:43;;;;;;;2.73;0.90;;;;;;;0.94;100.00;98979.38;5954722;29;20063;-73
2024/01/15 06:16:38;;;;;;;6.63;0.93;;;;;;;0.91;100.00;98971.81;5951076;29;20126;-72
2024/01/15 06:19:33;;;;;;;4.97;1.77;;;;;;;0.84;100.00;98983.72;5944080;28;20195;-71
2024/01/15 06:22:29;;;;;;;5.67;1.00;;;;;;;0.79;100.00;98985.06;5957229;29;20031;-71
2024/01/15 06:25:24;;;;;;;6.13;1.17;;;;;;;0.60;100.00;98975.28;5952577;29;20644;-70
2024/01/15 06:28:19;;;;;;;5.57;1.00;;;;;;;0.59;100.00;98973.66;5953781;29;20054;-72
2024/01/15 06:31:14;;;;;;;3.80;1.70;;;;;;;0.65;100.00;98983.59;5955241;29;20286;-71
2024/01/15 06:34:10;;;;;;;4.77;1.07;;;;;;;0.63;100.00;98982.03;5955809;29;20110;-70
2024/01/15 06:37:05;;;;;;;9.43;1.13;;;;;;;0.68;100.00;98993.75;5957244;29;20459;-71
2024/01/15 06:40:01;;;;;;;7.15;1.58;;;;;;;0.68;100.00;98987.72;5951814;29;20070;-71
2024/01/15 06:42:56;;;;;;;3.07;0.80;;;;;;;0.59;100.00;98989.31;5953961;29;20134;-71
2024/01/15 06:45:51;;;;;;;2.60;0.70;;;;;;;0.55;100.00;98988.72;5948562;29;20287;-71
2024/01/15 06:48:47;;;;;;;2.50;0.97;;;;;;;0.52;100.00;98991.56;5953597;29;20115;-70
2024/01/15 06:51:42;;;;;;;2.70;0.87;;;;;;;0.56;100.00;98999.97;5952222;29;20036;-71
2024/01/15 06:54:37;;;;;;;5.87;1.20;;;;;;;0.58;100.00;98992.84;5953606;29;20078;-71
2024/01/15 06:57:33;;;;;;;4.00;1.30;;;;;;;0.56;100.00;98994.75;5952279;29;20271;-73
2024/01/15 07:00:28;;;;;;;4.20;1.23;;;;;;;0.57;100.00;98991.22;5953386;29;20039;-71
2024/01/15 07:03:24;;;;;;;6.45;1.85;;;;;;;0.58;100.00;98988.47;5955179;29;20051;-72
2024/01/15 07:06:19;;;;;;;11.53;2.17;;;;;;;0.64;100.00;98991.53;5957614;29;20529;-70
2024/01/15 07:09:14;;;;;;;5.30;1.50;;;;;;;0.71;100.00;99001.31;5953377;29;20070;-72
2024/01/15 07:12:10;;;;;;;5.95;1.40;;;;;;;0.69;100.00;99000.63;5952111;29;20059;-72
2024/01/15 07:15:07;;;;;;;5.17;1.60;;;;;;;0.62;100.00;99014.31;5954299;29;20034;-72
2024/01/15 07:18:03;;;;;;;9.95;2.70;;;;;;;0.53;100.00;99003.66;5945130;29;20032;-73
2024/01/15 07:20:59;;;;;;;3.22;0.93;;;;;;;0.56;100.00;98999.97;5943811;29;20065;-73
2024/01/15 07:23:55;;;;;;;5.15;1.60;;;;;;;0.54;100.00;99002.69;5946995;29;20047;-72
2024/01/15 07:26:50;;;;;;;9.13;2.00;;;;;;;0.51;100.00;98997.75;5949787;29;20070;-71
2024/01/15 07:29:45;;;;;;;11.00;2.03;;;;;;;0.59;100.00;99015.38;5946399;29;20040;-71
2024/01/15 07:32:41;;;;;;;5.97;1.53;;;;;;;0.60;100.00;99015.25;5948502;29;20027;-71
2024/01/15 07:35:36;;;;;;;8.23;1.92;;;;;;;0.61;100.00;99003.03;5950816;29;20391;-71
2024/01/15 07:38:31;;;;;;;6.60;1.77;;;;;;;0.69;100.00;99002.41;5952884;29;20413;-71
2024/01/15 07:41:27;;;;;;;11.57;1.80;;;;;;;0.73;100.00;98998.59;5948083;29;20419;-71
2024/01/15 07:44:22;;;;;;;3.83;1.03;;;;;;;0.76;100.00;98996.53;5937954;29;20043;-71
2024/01/15 07:47:17;;;;;;;4.27;1.30;;;;;;;0.89;100.00;99015.47;5942691;29;20036;-72
2024/01/15 07:50:13;;;;;;;6.20;1.77;;;;;;;0.90;100.00;99009.28;5944356;29;20040;-72
2024/01/15 07:53:08;;;;;;;6.15;1.35;;;;;;;0.93;100.00;99014.25;5945403;29;20695;-72
2024/01/15 07:56:04;;;;;;;5.33;1.37;;;;;;;0.99;100.00;99024.19;5941518;29;20028;-73
2024/01/15 07:58:59;;;;;;;4.18;1.42;;;;;;;0.90;100.00;99014.50;5954166;29;20055;-72
2024/01/15 08:01:54;;;;;;;5.28;1.35;;;;;;;0.92;100.00;99012.63;5944261;29;20042;-72
2024/01/15 08:04:50;;;;;;;6.90;1.40;;;;;;;0.92;100.00;99017.00;5945162;29;20129;-72
2024/01/15 08:07:45;;;;;;;5.72;1.73;;;;;;;0.80;100.00;99008.41;5942578;29;20116;-72
2024/01/15 08:10:40;;;;;;;9.13;1.73;;;;;;;0.79;100.00;99018.97;5948421;29;20165;-72
2024/01/15 08:13:36;;;;;;;11.10;1.70;;;;;;;0.81;100.00;99025.72;5947500;29;20031;-72
2024/01/15 08:16:31;;;;;;;6.47;1.50;;;;;;;0.79;100.00;99014.56;5952824;29;20035;-71
2024/01/15 08:19:26;;;;;;;4.07;1.90;;;;;;;0.80;100.00;99037.09;5945443;29;20063;-70
2024/01/15 08:22:22;;;;;;;6.13;1.60;;;;;;;0.80;100.00;99024.03;5946154;29;20372;-71
2024/01/15 08:25:17;;;;;;;15.00;2.87;;;;;;;0.73;100.00;99017.69;5943150;29;20080;-72
2024/01/15 08:28:12;;;;;;;5.07;1.43;;;;;;;0.70;100.00;99019.72;5950488;29;20056;-71
2024/01/15 08:31:07;;;;;;;3.83;1.57;;;;;;;0.70;100.00;99028.38;5949683;29;20037;-73
2024/01/15 08:34:03;;;;;;;11.87;1.97;;;;;;;0.75;100.00;99031.44;5949273;29;20040;-72
2024/01/15 08:36:58;;;;;;;5.73;1.70;;;;;;;0.73;100.00;99033.34;5948423;29;20396;-72
2024/01/15 08:39:53;;;;;;;5.67;1.90;;;;;;;0.66;100.00;99026.94;5948574;29;20276;-71
2024/01/15 08:42:49;;;;;;;8.60;1.70;;;;;;;0.70;100.00;99043.19;5952116;29;20051;-71
2024/01/15 08:45:45;;;;;;;8.27;1.70;;;;;;;0.49;100.00;99027.53;5953335;29;20213;-72
2024/01/15 08:48:40;;;;;;;6.75;1.50;;;;;;;0.41;100.00;99037.72;5953698;29;20027;-71
2024/01/15 08:51:35;;;;;;;6.10;1.90;;;;;;;0.13;100.00;99007.00;5957900;29;20059;-71
2024/01/15 08:54:31;;;;;;;6.47;2.00;;;;;;;0.26;100.00;99033.75;5956293;29;20067;-72
2024/01/15 08:57:26;;;;;;;6.63;2.47;;;;;;;0.36;100.00;99039.84;5953088;29;20039;-71
2024/01/15 09:00:21;;;;;;;5.60;1.77;;;;;;;0.32;100.00;99020.22;5955923;29;20032;-72
2024/01/15 09:03:17;;;;;;;5.90;1.93;;;;;;;0.38;100.00;99037.97;5955863;29;20314;-72
2024/01/15 09:06:12;;;;;;;4.07;1.70;;;;;;;0.36;100.00;99029.44;5949889;29;20755;-71
2024/01/15 09:09:07;;;;;;;5.40;2.20;;;;;;;0.49;100.00;99033.53;5951066;29;20152;-72
2024/01/15 09:12:03;;;;;;;7.37;2.10;;;;;;;0.61;100.00;99049.97;5960727;29;20047;-71
2024/01/15 09:14:58;;;;;;;5.35;1.58;;;;;;;0.55;100.00;99034.81;5956576;29;20031;-71
2024/01/15 09:17:53;;;;;;;2.33;1.23;;;;;;;0.44;100.00;99042.69;5955387;29;20024;-70
2024/01/15 09:20:49;;;;;;;7.47;1.97;;;;;;;0.45;100.00;99053.00;5956335;29;20287;-71
2024/01/15 09:23:44;;;;;;;3.80;1.43;;;;;;;0.54;100.00;99054.03;5952019;29;20032;-71
2024/01/15 09:26:40;;;;;;;7.83;1.80;;;;;;;0.63;100.00;99042.84;5947327;29;20103;-71
2024/01/15 09:29:39;;;;;;;4.82;1.38;;;;;;;0.76;100.00;99055.72;5954084;29;20103;-71
2024/01/15 09:32:35;;;;;;;8.23;1.80;;;;;;;0.77;100.00;99042.56;5957379;29;20114;-71
2024/01/15 09:35:30;;;;;;;9.47;1.63;;;;;;;0.79;100.00;99053.69;5957011;29;20438;-71
2024/01/15 09:38:25;;;;;;;9.53;1.20;;;;;;;0.89;100.00;99059.81;5951872;28;20395;-70
2024/01/15 09:41:21;;;;;;;6.07;1.03;;;;;;;0.96;100.00;99053.13;5951421;29;20391;-70
2024/01/15 09:44:16;;;;;;;4.97;1.20;;;;;;;0.96;100.00;99058.34;5952246;29;20103;-70
2024/01/15 09:47:12;;;;;;;5.57;1.33;;;;;;;1.10;100.00;99055.44;5956034;29;20075;-70
2024/01/15 09:50:08;;;;;;;3.60;0.95;;;;;;;1.12;100.00;99060.50;5948475;29;20099;-70
2024/01/15 09:53:05;;;;;;;4.28;1.10;;;;;;;1.17;100.00;99053.97;5953166;29;20054;-71
2024/01/15 09:56:01;;;;;;;6.00;1.15;;;;;;;1.25;100.00;99052.50;5950085;29;20096;-71
2024/01/15 09:58:57;;;;;;;5.40;1.60;;;;;;;1.32;100.00;99056.25;5952621;29;20082;-71
2024/01/15 10:01:52;;;;;;;2.20;0.80;;;;;;;1.25;100.00;99026.41;5950745;29;20031;-71
2024/01/15 10:04:48;;;;;;;6.97;1.52;;;;;;;1.41;100.00;99045.03;5949860;29;20027;-70
2024/01/15 10:07:44;;;;;;;4.90;1.00;;;;;;;1.47;100.00;99057.59;5952702;29;20024;-71
2024/01/15 10:10:41;;;;;;;5.28;1.52;;;;;;;1.50;100.00;99054.69;5947204;28;20472;-71
2024/01/15 10:13:36;;;;;;;8.18;1.60;;;;;;;1.66;100.00;99049.81;5949794;29;20102;-71
2024/01/15 10:16:31;;;;;;;4.97;1.40;;;;;;;1.83;100.00;99041.38;5953746;29;20035;-70
2024/01/15 10:19:27;;;;;;;9.37;2.83;;;;;;;1.95;100.00;99044.72;5954969;29;20047;-71
2024/01/15 10:22:23;;;;;;;7.07;1.98;;;;;;;1.86;100.00;99054.16;5956214;29;20050;-71
2024/01/15 10:25:24;;;;;;;6.88;1.52;;;;;;;1.71;100.00;99051.06;5955409;29;20687;-71
2024/01/15 10:28:20;;;;;;;4.25;1.10;;;;;;;1.74;100.00;99063.03;5950001;29;20034;-71
2024/01/15 10:31:15;;;;;;;4.10;1.50;;;;;;;1.68;100.00;99064.44;5955613;29;20107;-72
2024/01/15 10:34:15;;;;;;;5.80;1.30;;;;;;;1.70;100.00;99052.06;5954300;29;20035;-71
2024/01/15 10:37:10;;;;;;;5.13;1.13;;;;;;;1.61;100.00;99036.31;5950906;29;20032;-70
2024/01/15 10:40:07;;;;;;;3.55;1.20;;;;;;;1.58;100.00;99052.25;5945037;29;20043;-71
2024/01/15 10:43:04;;;;;;;4.18;1.30;;;;;;;1.66;100.00;99047.19;5951039;29;20031;-71
2024/01/15 10:45:59;;;;;;;3.47;0.90;;;;;;;1.56;100.00;99043.72;5954757;29;20039;-72
2024/01/15 10:48:55;;;;;;;2.33;1.00;;;;;;;1.60;100.00;99051.16;5950742;29;20075;-72
2024/01/15 10:51:51;;;;;;;4.27;1.47;;;;;;;1.54;100.00;99043.03;5945664;29;20364;-72
2024/01/15 10:54:47;;;;;;;4.75;1.00;;;;;;;1.52;100.00;99044.97;5950439;29;20084;-72
2024/01/15 10:57:44;;;;;;;8.07;1.10;;;;;;;1.39;100.00;99049.53;5942111;29;20020;-71
2024/01/15 11:00:40;;;;;;;8.30;1.52;;;;;;;1.20;100.00;99061.53;5948189;29;20032;-71
2024/01/15 11:03:36;;;;;;;6.50;1.00;;;;;;;1.17;100.00;99063.56;5954575;29;20083;-71
2024/01/15 11:06:42;;;;;;;3.88;1.10;;;;;;;1.08;100.00;99054.75;5950647;29;20063;-71
2024/01/15 11:09:38;;;;;;;3.40;1.27;;;;;;;1.05;100.00;99056.78;5954942;29;20074;-70
2024/01/15 11:12:33;;;;;;;3.55;0.82;;;;;;;0.96;100.00;99042.69;5955583;29;20796;-70
2024/01/15 11:15:29;;;;;;;2.22;1.00;;;;;;;1.06;100.00;99056.63;5954276;29;20086;-70
2024/01/15 11:18:26;;;;;;;5.67;1.23;;;;;;;1.07;100.00;99032.19;5955303;29;20036;-72
2024/01/15 11:21:23;;;;;;;4.13;0.90;;;;;;;1.16;100.00;99031.44;5952999;29;20059;-70
2024/01/15 11:24:40;;;;;;;3.38;1.17;;;;;;;1.35;100.00;99032.50;5951367;29;20066;-71
2024/01/15 11:27:51;;;;;;;3.60;1.25;;;;;;;1.41;100.00;99048.47;5955396;29;20039;-70
2024/01/15 11:30:47;;;;;;;2.03;0.80;;;;;;;1.42;100.00;99031.84;5951769;29;20027;-72
2024/01/15 11:33:49;;;;;;;2.45;0.80;;;;;;;1.49;100.00;99037.38;5942119;29;20539;-69
2024/01/15 11:36:53;;;;;;;4.40;1.30;;;;;;;1.46;100.00;99048.91;5954021;29;20035;-69
2024/01/15 11:39:51;;;;;;;2.95;1.17;;;;;;;1.34;100.00;99038.66;5949382;29;20031;-69
2024/01/15 11:42:47;;;;;;;2.42;1.08;;;;;;;1.26;100.00;99038.47;5944046;29;20075;-70
2024/01/15 11:45:42;;;;;;;3.15;0.68;;;;;;;1.23;100.00;99031.72;5956859;29;20028;-71
2024/01/15 11:48:47;;;;;;;3.80;0.60;;;;;;;1.30;100.00;99037.28;5948239;29;20115;-73
2024/01/15 11:51:42;;;;;;;4.68;1.20;;;;;;;1.33;100.00;99039.63;5950600;29;20435;-70
2024/01/15 11:54:38;;;;;;;4.90;1.00;;;;;;;1.55;100.00;99036.88;5954467;29;20042;-72
2024/01/15 11:57:39;;;;;;;4.57;0.77;;;;;;;1.73;100.00;99030.06;5953649;29;20032;-72
2024/01/15 12:00:39;;;;;;;2.67;1.98;;;;;;;1.79;100.00;99030.34;5950708;29;20049;-73
2024/01/15 12:03:35;;;;;;;2.65;0.60;;;;;;;1.84;100.00;99032.59;5952877;29;20035;-70
2024/01/15 12:06:31;;;;;;;3.78;1.13;;;;;;;1.79;100.00;99029.53;5953610;29;20043;-70
2024/01/15 12:09:27;;;;;;;5.43;0.93;;;;;;;1.74;100.00;99016.84;5948731;29;20036;-70
2024/01/15 12:12:57;;;;;;;4.60;1.50;;;;;;;1.76;100.00;99032.41;5947569;29;20106;-72
2024/01/15 12:15:54;;;;;;;3.08;0.90;;;;;;;1.73;100.00;99022.22;5954476;29;20110;-71
2024/01/15 12:18:50;;;;;;;8.82;1.20;;;;;;;1.71;100.00;99032.78;5951040;29;20406;-73
2024/01/15 12:21:45;;;;;;;8.15;0.80;;;;;;;1.66;100.00;99023.69;5950086;29;20035;-73
2024/01/15 12:24:41;;;;;;;4.60;1.00;;;;;;;1.62;100.00;99033.59;5958584;29;20070;-72
2024/01/15 12:27:36;;;;;;;6.50;1.10;;;;;;;1.56;100.00;99028.06;5955802;29;20259;-72
2024/01/15 12:30:34;;;;;;;6.38;0.93;;;;;;;1.59;100.00;99038.25;5959664;29;20035;-72
2024/01/15 12:33:29;;;;;;;3.85;0.85;;;;;;;1.54;100.00;99035.19;5958321;29;20032;-72
2024/01/15 12:36:25;;;;;;;3.83;0.93;;;;;;;1.51;100.00;99035.47;5960749;29;20430;-72
2024/01/15 12:39:25;;;;;;;5.40;1.13;;;;;;;1.52;100.00;99034.50;5955912;29;20023;-73
2024/01/15 12:42:21;;;;;;;4.65;1.20;;;;;;;1.59;100.00;99053.91;5955512;29;20059;-72
2024/01/15 12:45:17;;;;;;;4.68;1.42;;;;;;;1.56;100.00;99041.13;5961867;29;20056;-73
2024/01/15 12:48:15;;;;;;;7.38;1.95;;;;;;;1.46;100.00;99048.09;5949356;29;20038;-72
2024/01/15 12:51:10;;;;;;;4.13;1.15;;;;;;;1.46;100.00;99048.09;5947298;29;20039;-72
2024/01/15 12:54:06;;;;;;;8.37;2.60;;;;;;;1.45;100.00;99046.41;5955722;29;20050;-72
2024/01/15 12:57:01;;;;;;;10.65;2.35;;;;;;;1.47;100.00;99047.13;5956126;29;20428;-72
2024/01/15 12:59:56;;;;;;;6.13;2.03;;;;;;;1.48;100.00;99047.00;5953303;29;20471;-72
2024/01/15 13:02:52;;;;;;;2.00;0.80;;;;;;;1.49;100.00;99053.06;5957678;29;20279;-73
2024/01/15 13:05:47;;;;;;;2.10;1.50;;;;;;;1.50;100.00;99049.47;5957953;29;20039;-73
2024/01/15 13:08:42;;;;;;;6.50;2.00;;;;;;;1.44;100.00;99044.78;5952092;29;20271;-73
2024/01/15 13:11:38;;;;;;;3.53;1.00;;;;;;;1.52;100.00;99047.56;5953144;29;20039;-73
2024/01/15 13:14:33;;;;;;;4.60;1.23;;;;;;;1.56;100.00;99054.16;5952928;29;20028;-72
2024/01/15 13:17:28;;;;;;;6.13;1.77;;;;;;;1.67;100.00;99054.09;5956713;29;20027;-73
2024/01/15 13:20:24;;;;;;;9.63;1.50;;;;;;;1.72;100.00;99049.28;5953535;29;20273;-73
2024/01/15 13:23:19;;;;;;;4.15;1.60;;;;;;;1.76;100.00;99032.41;5950262;29;20036;-73
2024/01/15 13:26:17;;;;;;;10.93;1.50;;;;;;;1.88;100.00;99033.94;5945774;29;20043;-72
2024/01/15 13:29:13;;;;;;;6.72;1.60;;;;;;;2.04;100.00;99042.13;5944741;29;20118;-72
2024/01/15 13:32:11;;;;;;;5.63;1.13;;;;;;;2.04;100.00;99041.31;5954448;29;20434;-72
2024/01/15 13:35:09;;;;;;;9.40;1.00;;;;;;;2.03;100.00;99044.88;5951536;29;20078;-72
2024/01/15 13:38:04;;;;;;;3.03;1.13;;;;;;;1.75;100.00;99036.81;5956023;28;20467;-72
2024/01/15 13:41:00;;;;;;;17.80;6.00;;;;;;;1.43;100.00;99059.63;5953772;29;20055;-73
2024/01/15 13:43:57;;;;;;;5.95;1.70;;;;;;;1.27;100.00;99063.63;5964480;29;20271;-72
2024/01/15 13:46:53;;;;;;;3.10;1.35;;;;;;;1.06;100.00;99056.63;5946458;29;20031;-71